sensor_id;sensor_type;location;lat;lon;timestamp;P1;durP1;ratioP1;P2;durP2;ratioP2
10333;SDS011;5212;47.892;16.406;2023-05-29T00:02:07;7.67;;;6.50;;
10333;SDS011;5212;47.892;16.406;2023-05-29T00:04:33;9.20;;;7.17;;
10333;SDS011;5212;47.892;16.406;2023-05-29T00:06:59;7.50;;;6.27;;
10333;SDS011;5212;47.892;16.406;2023-05-29T00:09:25;8.53;;;6.40;;
10333;SDS011;5212;47.892;16.406;2023-05-29T00:11:51;9.33;;;6.40;;
10333;SDS011;5212;47.892;16.406;2023-05-29T00:14:18;6.77;;;5.97;;
10333;SDS011;5212;47.892;16.406;2023-05-29T00:16:44;9.23;;;6.67;;
10333;SDS011;5212;47.892;16.406;2023-05-29T00:19:11;9.40;;;6.57;;
10333;SDS011;5212;47.892;16.406;2023-05-29T00:21:38;8.43;;;6.47;;
10333;SDS011;5212;47.892;16.406;2023-05-29T00:24:04;9.23;;;7.17;;
10333;SDS011;5212;47.892;16.406;2023-05-29T00:26:30;9.77;;;6.80;;
10333;SDS011;5212;47.892;16.406;2023-05-29T00:28:56;11.60;;;6.47;;
10333;SDS011;5212;47.892;16.406;2023-05-29T00:31:23;8.63;;;6.53;;
10333;SDS011;5212;47.892;16.406;2023-05-29T00:33:49;8.27;;;6.70;;
10333;SDS011;5212;47.892;16.406;2023-05-29T00:36:15;7.03;;;6.30;;
10333;SDS011;5212;47.892;16.406;2023-05-29T00:38:41;7.17;;;6.00;;
10333;SDS011;5212;47.892;16.406;2023-05-29T00:41:08;8.07;;;5.83;;
10333;SDS011;5212;47.892;16.406;2023-05-29T00:43:34;6.70;;;5.70;;
10333;SDS011;5212;47.892;16.406;2023-05-29T00:46:00;8.97;;;6.50;;
10333;SDS011;5212;47.892;16.406;2023-05-29T00:48:26;9.47;;;6.70;;
10333;SDS011;5212;47.892;16.406;2023-05-29T00:50:52;7.97;;;6.13;;
10333;SDS011;5212;47.892;16.406;2023-05-29T00:53:18;8.17;;;6.50;;
10333;SDS011;5212;47.892;16.406;2023-05-29T00:55:45;9.73;;;6.40;;
10333;SDS011;5212;47.892;16.406;2023-05-29T00:58:11;6.70;;;5.73;;
10333;SDS011;5212;47.892;16.406;2023-05-29T01:00:37;7.57;;;6.17;;
10333;SDS011;5212;47.892;16.406;2023-05-29T01:03:04;8.17;;;6.43;;
10333;SDS011;5212;47.892;16.406;2023-05-29T01:05:31;6.90;;;6.20;;
10333;SDS011;5212;47.892;16.406;2023-05-29T01:07:58;6.43;;;5.73;;
10333;SDS011;5212;47.892;16.406;2023-05-29T01:10:25;8.60;;;7.00;;
10333;SDS011;5212;47.892;16.406;2023-05-29T01:12:52;6.97;;;6.27;;
10333;SDS011;5212;47.892;16.406;2023-05-29T01:15:26;7.07;;;5.93;;
10333;SDS011;5212;47.892;16.406;2023-05-29T01:18:04;9.73;;;6.43;;
10333;SDS011;5212;47.892;16.406;2023-05-29T01:20:35;7.83;;;6.63;;
10333;SDS011;5212;47.892;16.406;2023-05-29T01:23:07;7.63;;;6.17;;
10333;SDS011;5212;47.892;16.406;2023-05-29T01:25:56;7.97;;;6.27;;
10333;SDS011;5212;47.892;16.406;2023-05-29T01:28:47;7.43;;;6.40;;
10333;SDS011;5212;47.892;16.406;2023-05-29T01:31:13;6.77;;;5.60;;
10333;SDS011;5212;47.892;16.406;2023-05-29T01:33:42;7.57;;;6.33;;
10333;SDS011;5212;47.892;16.406;2023-05-29T01:36:08;6.63;;;5.93;;
10333;SDS011;5212;47.892;16.406;2023-05-29T01:38:34;8.13;;;6.50;;
10333;SDS011;5212;47.892;16.406;2023-05-29T01:41:00;7.27;;;6.07;;
10333;SDS011;5212;47.892;16.406;2023-05-29T01:43:27;6.60;;;5.83;;
10333;SDS011;5212;47.892;16.406;2023-05-29T01:45:54;7.77;;;6.00;;
10333;SDS011;5212;47.892;16.406;2023-05-29T01:48:20;7.57;;;5.40;;
10333;SDS011;5212;47.892;16.406;2023-05-29T01:50:47;9.20;;;6.97;;
10333;SDS011;5212;47.892;16.406;2023-05-29T01:53:13;6.53;;;5.67;;
10333;SDS011;5212;47.892;16.406;2023-05-29T01:55:40;9.97;;;7.00;;
10333;SDS011;5212;47.892;16.406;2023-05-29T01:58:06;8.00;;;6.50;;
10333;SDS011;5212;47.892;16.406;2023-05-29T02:00:32;8.63;;;6.80;;
10333;SDS011;5212;47.892;16.406;2023-05-29T02:02:59;7.83;;;6.20;;
10333;SDS011;5212;47.892;16.406;2023-05-29T02:05:25;8.07;;;6.03;;
10333;SDS011;5212;47.892;16.406;2023-05-29T02:07:51;8.13;;;6.40;;
10333;SDS011;5212;47.892;16.406;2023-05-29T02:10:17;9.17;;;6.70;;
10333;SDS011;5212;47.892;16.406;2023-05-29T02:12:43;9.07;;;7.03;;
10333;SDS011;5212;47.892;16.406;2023-05-29T02:15:10;7.93;;;6.40;;
10333;SDS011;5212;47.892;16.406;2023-05-29T02:17:36;7.27;;;6.10;;
10333;SDS011;5212;47.892;16.406;2023-05-29T02:20:03;7.50;;;5.97;;
10333;SDS011;5212;47.892;16.406;2023-05-29T02:22:29;8.90;;;6.67;;
10333;SDS011;5212;47.892;16.406;2023-05-29T02:24:55;8.13;;;6.00;;
10333;SDS011;5212;47.892;16.406;2023-05-29T02:27:21;8.47;;;6.80;;
10333;SDS011;5212;47.892;16.406;2023-05-29T02:29:47;9.50;;;7.27;;
10333;SDS011;5212;47.892;16.406;2023-05-29T02:32:13;8.63;;;7.00;;
10333;SDS011;5212;47.892;16.406;2023-05-29T02:34:39;10.17;;;7.37;;
10333;SDS011;5212;47.892;16.406;2023-05-29T02:37:06;8.20;;;6.10;;
10333;SDS011;5212;47.892;16.406;2023-05-29T02:39:33;8.23;;;6.80;;
10333;SDS011;5212;47.892;16.406;2023-05-29T02:41:59;9.50;;;7.03;;
10333;SDS011;5212;47.892;16.406;2023-05-29T02:44:25;9.60;;;7.10;;
10333;SDS011;5212;47.892;16.406;2023-05-29T02:46:51;8.37;;;7.27;;
10333;SDS011;5212;47.892;16.406;2023-05-29T02:49:17;7.33;;;6.40;;
10333;SDS011;5212;47.892;16.406;2023-05-29T02:51:43;8.27;;;5.80;;
10333;SDS011;5212;47.892;16.406;2023-05-29T02:54:09;6.77;;;5.73;;
10333;SDS011;5212;47.892;16.406;2023-05-29T02:56:37;7.87;;;6.10;;
10333;SDS011;5212;47.892;16.406;2023-05-29T02:59:03;7.57;;;6.20;;
10333;SDS011;5212;47.892;16.406;2023-05-29T03:01:29;8.70;;;6.80;;
10333;SDS011;5212;47.892;16.406;2023-05-29T03:03:55;8.33;;;6.33;;
10333;SDS011;5212;47.892;16.406;2023-05-29T03:06:22;9.50;;;7.13;;
10333;SDS011;5212;47.892;16.406;2023-05-29T03:08:48;8.37;;;7.20;;
10333;SDS011;5212;47.892;16.406;2023-05-29T03:11:15;8.50;;;6.77;;
10333;SDS011;5212;47.892;16.406;2023-05-29T03:13:42;9.27;;;6.50;;
10333;SDS011;5212;47.892;16.406;2023-05-29T03:16:08;7.77;;;6.37;;
10333;SDS011;5212;47.892;16.406;2023-05-29T03:18:35;7.03;;;6.33;;
10333;SDS011;5212;47.892;16.406;2023-05-29T03:21:01;7.57;;;6.17;;
10333;SDS011;5212;47.892;16.406;2023-05-29T03:23:27;8.67;;;6.60;;
10333;SDS011;5212;47.892;16.406;2023-05-29T03:25:53;7.80;;;6.57;;
10333;SDS011;5212;47.892;16.406;2023-05-29T03:28:20;7.80;;;5.93;;
10333;SDS011;5212;47.892;16.406;2023-05-29T03:30:46;10.60;;;7.97;;
10333;SDS011;5212;47.892;16.406;2023-05-29T03:33:12;10.43;;;7.70;;
10333;SDS011;5212;47.892;16.406;2023-05-29T03:35:38;8.17;;;6.47;;
10333;SDS011;5212;47.892;16.406;2023-05-29T03:38:04;6.83;;;6.10;;
10333;SDS011;5212;47.892;16.406;2023-05-29T03:40:30;9.70;;;6.60;;
10333;SDS011;5212;47.892;16.406;2023-05-29T03:42:56;9.30;;;6.90;;
10333;SDS011;5212;47.892;16.406;2023-05-29T03:45:22;9.03;;;6.93;;
10333;SDS011;5212;47.892;16.406;2023-05-29T03:47:48;9.60;;;7.60;;
10333;SDS011;5212;47.892;16.406;2023-05-29T03:50:14;8.53;;;6.90;;
10333;SDS011;5212;47.892;16.406;2023-05-29T03:52:41;7.90;;;6.23;;
10333;SDS011;5212;47.892;16.406;2023-05-29T03:55:08;11.77;;;8.70;;
10333;SDS011;5212;47.892;16.406;2023-05-29T03:57:38;13.03;;;10.20;;
10333;SDS011;5212;47.892;16.406;2023-05-29T04:00:06;16.43;;;12.30;;
10333;SDS011;5212;47.892;16.406;2023-05-29T04:02:34;20.27;;;14.97;;
10333;SDS011;5212;47.892;16.406;2023-05-29T04:05:01;14.83;;;12.00;;
10333;SDS011;5212;47.892;16.406;2023-05-29T04:07:27;11.50;;;9.50;;
10333;SDS011;5212;47.892;16.406;2023-05-29T04:09:53;10.63;;;8.73;;
10333;SDS011;5212;47.892;16.406;2023-05-29T04:12:19;20.67;;;15.40;;
10333;SDS011;5212;47.892;16.406;2023-05-29T04:14:45;12.20;;;10.53;;
10333;SDS011;5212;47.892;16.406;2023-05-29T04:17:11;11.93;;;8.90;;
10333;SDS011;5212;47.892;16.406;2023-05-29T04:19:37;9.93;;;8.07;;
10333;SDS011;5212;47.892;16.406;2023-05-29T04:22:03;10.93;;;7.53;;
10333;SDS011;5212;47.892;16.406;2023-05-29T04:24:29;9.17;;;7.60;;
10333;SDS011;5212;47.892;16.406;2023-05-29T04:26:56;9.60;;;7.30;;
10333;SDS011;5212;47.892;16.406;2023-05-29T04:29:25;7.80;;;6.37;;
10333;SDS011;5212;47.892;16.406;2023-05-29T04:31:51;9.50;;;7.20;;
10333;SDS011;5212;47.892;16.406;2023-05-29T04:34:17;11.07;;;7.43;;
10333;SDS011;5212;47.892;16.406;2023-05-29T04:36:45;10.43;;;7.43;;
10333;SDS011;5212;47.892;16.406;2023-05-29T04:39:11;8.63;;;7.13;;
10333;SDS011;5212;47.892;16.406;2023-05-29T04:41:38;9.03;;;7.13;;
10333;SDS011;5212;47.892;16.406;2023-05-29T04:44:05;12.63;;;10.77;;
10333;SDS011;5212;47.892;16.406;2023-05-29T04:46:32;11.70;;;9.20;;
10333;SDS011;5212;47.892;16.406;2023-05-29T04:48:59;10.50;;;8.13;;
10333;SDS011;5212;47.892;16.406;2023-05-29T04:51:28;12.87;;;8.43;;
10333;SDS011;5212;47.892;16.406;2023-05-29T04:53:55;10.33;;;8.40;;
10333;SDS011;5212;47.892;16.406;2023-05-29T04:56:22;10.83;;;8.53;;
10333;SDS011;5212;47.892;16.406;2023-05-29T04:58:48;10.67;;;9.10;;
10333;SDS011;5212;47.892;16.406;2023-05-29T05:01:14;9.20;;;7.40;;
10333;SDS011;5212;47.892;16.406;2023-05-29T05:03:40;9.13;;;7.67;;
10333;SDS011;5212;47.892;16.406;2023-05-29T05:06:06;9.43;;;6.60;;
10333;SDS011;5212;47.892;16.406;2023-05-29T05:08:32;10.37;;;6.90;;
10333;SDS011;5212;47.892;16.406;2023-05-29T05:10:59;9.33;;;7.20;;
10333;SDS011;5212;47.892;16.406;2023-05-29T05:13:26;8.53;;;6.70;;
10333;SDS011;5212;47.892;16.406;2023-05-29T05:15:52;7.97;;;6.43;;
10333;SDS011;5212;47.892;16.406;2023-05-29T05:18:18;9.90;;;6.23;;
10333;SDS011;5212;47.892;16.406;2023-05-29T05:20:44;8.60;;;6.63;;
10333;SDS011;5212;47.892;16.406;2023-05-29T05:23:10;8.57;;;5.80;;
10333;SDS011;5212;47.892;16.406;2023-05-29T05:25:37;8.87;;;6.47;;
10333;SDS011;5212;47.892;16.406;2023-05-29T05:28:04;9.53;;;7.50;;
10333;SDS011;5212;47.892;16.406;2023-05-29T05:30:30;10.13;;;7.63;;
10333;SDS011;5212;47.892;16.406;2023-05-29T05:32:56;17.07;;;13.47;;
10333;SDS011;5212;47.892;16.406;2023-05-29T05:35:22;9.10;;;7.43;;
10333;SDS011;5212;47.892;16.406;2023-05-29T05:37:48;8.53;;;6.20;;
10333;SDS011;5212;47.892;16.406;2023-05-29T05:40:14;6.93;;;5.57;;
10333;SDS011;5212;47.892;16.406;2023-05-29T05:42:40;8.10;;;5.80;;
10333;SDS011;5212;47.892;16.406;2023-05-29T05:45:07;15.93;;;12.50;;
10333;SDS011;5212;47.892;16.406;2023-05-29T05:47:34;13.47;;;10.03;;
10333;SDS011;5212;47.892;16.406;2023-05-29T05:50:00;8.60;;;7.20;;
10333;SDS011;5212;47.892;16.406;2023-05-29T05:52:26;9.03;;;6.70;;
10333;SDS011;5212;47.892;16.406;2023-05-29T05:54:56;18.13;;;12.50;;
10333;SDS011;5212;47.892;16.406;2023-05-29T05:57:22;20.00;;;13.80;;
10333;SDS011;5212;47.892;16.406;2023-05-29T05:59:48;8.57;;;6.13;;
10333;SDS011;5212;47.892;16.406;2023-05-29T06:02:14;16.77;;;11.40;;
10333;SDS011;5212;47.892;16.406;2023-05-29T06:04:41;10.77;;;8.10;;
10333;SDS011;5212;47.892;16.406;2023-05-29T06:07:07;6.30;;;5.30;;
10333;SDS011;5212;47.892;16.406;2023-05-29T06:09:33;7.10;;;4.70;;
10333;SDS011;5212;47.892;16.406;2023-05-29T06:11:59;5.30;;;4.23;;
10333;SDS011;5212;47.892;16.406;2023-05-29T06:14:25;7.47;;;4.57;;
10333;SDS011;5212;47.892;16.406;2023-05-29T06:16:51;5.23;;;4.30;;
10333;SDS011;5212;47.892;16.406;2023-05-29T06:19:19;5.27;;;4.50;;
10333;SDS011;5212;47.892;16.406;2023-05-29T06:21:45;6.03;;;4.47;;
10333;SDS011;5212;47.892;16.406;2023-05-29T06:24:11;4.90;;;4.00;;
10333;SDS011;5212;47.892;16.406;2023-05-29T06:26:39;5.40;;;4.50;;
10333;SDS011;5212;47.892;16.406;2023-05-29T06:29:05;12.57;;;9.10;;
10333;SDS011;5212;47.892;16.406;2023-05-29T06:31:31;6.40;;;4.87;;
10333;SDS011;5212;47.892;16.406;2023-05-29T06:33:58;6.63;;;4.33;;
10333;SDS011;5212;47.892;16.406;2023-05-29T06:36:24;6.37;;;4.97;;
10333;SDS011;5212;47.892;16.406;2023-05-29T06:38:50;5.93;;;3.80;;
10333;SDS011;5212;47.892;16.406;2023-05-29T06:41:17;7.13;;;4.33;;
10333;SDS011;5212;47.892;16.406;2023-05-29T06:43:43;5.83;;;4.60;;
10333;SDS011;5212;47.892;16.406;2023-05-29T06:46:09;8.13;;;4.80;;
10333;SDS011;5212;47.892;16.406;2023-05-29T06:48:35;6.13;;;4.43;;
10333;SDS011;5212;47.892;16.406;2023-05-29T06:51:02;8.67;;;4.57;;
10333;SDS011;5212;47.892;16.406;2023-05-29T06:53:34;7.37;;;4.40;;
10333;SDS011;5212;47.892;16.406;2023-05-29T06:56:01;6.33;;;4.90;;
10333;SDS011;5212;47.892;16.406;2023-05-29T06:58:27;5.90;;;4.43;;
10333;SDS011;5212;47.892;16.406;2023-05-29T07:00:53;6.73;;;4.30;;
10333;SDS011;5212;47.892;16.406;2023-05-29T07:03:19;6.20;;;4.30;;
10333;SDS011;5212;47.892;16.406;2023-05-29T07:05:45;5.57;;;3.93;;
10333;SDS011;5212;47.892;16.406;2023-05-29T07:08:11;6.73;;;4.20;;
10333;SDS011;5212;47.892;16.406;2023-05-29T07:10:38;5.27;;;3.50;;
10333;SDS011;5212;47.892;16.406;2023-05-29T07:13:04;5.77;;;3.60;;
10333;SDS011;5212;47.892;16.406;2023-05-29T07:15:31;5.20;;;3.87;;
10333;SDS011;5212;47.892;16.406;2023-05-29T07:17:57;5.37;;;3.50;;
10333;SDS011;5212;47.892;16.406;2023-05-29T07:20:23;5.73;;;3.60;;
10333;SDS011;5212;47.892;16.406;2023-05-29T07:22:49;3.73;;;3.40;;
10333;SDS011;5212;47.892;16.406;2023-05-29T07:25:15;5.00;;;4.17;;
10333;SDS011;5212;47.892;16.406;2023-05-29T07:27:42;4.23;;;3.40;;
10333;SDS011;5212;47.892;16.406;2023-05-29T07:30:08;5.63;;;3.67;;
10333;SDS011;5212;47.892;16.406;2023-05-29T07:32:35;5.30;;;3.90;;
10333;SDS011;5212;47.892;16.406;2023-05-29T07:35:01;4.60;;;3.77;;
10333;SDS011;5212;47.892;16.406;2023-05-29T07:37:27;4.83;;;3.80;;
10333;SDS011;5212;47.892;16.406;2023-05-29T07:39:55;4.47;;;3.70;;
10333;SDS011;5212;47.892;16.406;2023-05-29T07:42:21;4.30;;;3.50;;
10333;SDS011;5212;47.892;16.406;2023-05-29T07:44:47;4.73;;;3.50;;
10333;SDS011;5212;47.892;16.406;2023-05-29T07:47:14;4.13;;;3.50;;
10333;SDS011;5212;47.892;16.406;2023-05-29T07:49:40;6.03;;;3.83;;
10333;SDS011;5212;47.892;16.406;2023-05-29T07:52:06;4.87;;;3.47;;
10333;SDS011;5212;47.892;16.406;2023-05-29T07:54:32;9.47;;;3.60;;
10333;SDS011;5212;47.892;16.406;2023-05-29T07:56:58;5.87;;;3.57;;
10333;SDS011;5212;47.892;16.406;2023-05-29T07:59:24;3.90;;;3.27;;
10333;SDS011;5212;47.892;16.406;2023-05-29T08:01:51;4.20;;;3.10;;
10333;SDS011;5212;47.892;16.406;2023-05-29T08:04:17;6.93;;;3.63;;
10333;SDS011;5212;47.892;16.406;2023-05-29T08:06:43;5.97;;;4.07;;
10333;SDS011;5212;47.892;16.406;2023-05-29T08:09:09;6.33;;;3.80;;
10333;SDS011;5212;47.892;16.406;2023-05-29T08:11:35;4.90;;;3.70;;
10333;SDS011;5212;47.892;16.406;2023-05-29T08:14:01;4.57;;;3.70;;
10333;SDS011;5212;47.892;16.406;2023-05-29T08:16:27;4.60;;;3.30;;
10333;SDS011;5212;47.892;16.406;2023-05-29T08:18:54;4.60;;;3.67;;
10333;SDS011;5212;47.892;16.406;2023-05-29T08:21:21;3.70;;;3.30;;
10333;SDS011;5212;47.892;16.406;2023-05-29T08:23:47;3.63;;;3.33;;
10333;SDS011;5212;47.892;16.406;2023-05-29T08:26:13;5.07;;;3.80;;
10333;SDS011;5212;47.892;16.406;2023-05-29T08:28:39;5.23;;;3.50;;
10333;SDS011;5212;47.892;16.406;2023-05-29T08:31:05;7.13;;;3.20;;
10333;SDS011;5212;47.892;16.406;2023-05-29T08:33:31;3.97;;;3.40;;
10333;SDS011;5212;47.892;16.406;2023-05-29T08:35:58;5.70;;;3.30;;
10333;SDS011;5212;47.892;16.406;2023-05-29T08:38:25;4.40;;;3.43;;
10333;SDS011;5212;47.892;16.406;2023-05-29T08:40:51;4.37;;;3.27;;
10333;SDS011;5212;47.892;16.406;2023-05-29T08:43:20;4.73;;;3.40;;
10333;SDS011;5212;47.892;16.406;2023-05-29T08:45:47;4.07;;;3.60;;
10333;SDS011;5212;47.892;16.406;2023-05-29T08:48:13;5.23;;;3.70;;
10333;SDS011;5212;47.892;16.406;2023-05-29T08:50:41;4.23;;;3.43;;
10333;SDS011;5212;47.892;16.406;2023-05-29T08:53:10;5.33;;;3.80;;
10333;SDS011;5212;47.892;16.406;2023-05-29T08:55:37;5.83;;;3.90;;
10333;SDS011;5212;47.892;16.406;2023-05-29T08:58:03;5.23;;;3.60;;
10333;SDS011;5212;47.892;16.406;2023-05-29T09:00:30;5.00;;;3.50;;
10333;SDS011;5212;47.892;16.406;2023-05-29T09:02:56;4.27;;;3.53;;
10333;SDS011;5212;47.892;16.406;2023-05-29T09:05:24;4.77;;;3.40;;
10333;SDS011;5212;47.892;16.406;2023-05-29T09:07:52;4.77;;;3.87;;
10333;SDS011;5212;47.892;16.406;2023-05-29T09:10:19;4.07;;;3.50;;
10333;SDS011;5212;47.892;16.406;2023-05-29T09:12:46;6.57;;;4.00;;
10333;SDS011;5212;47.892;16.406;2023-05-29T09:15:16;5.60;;;3.90;;
10333;SDS011;5212;47.892;16.406;2023-05-29T09:17:43;5.67;;;3.97;;
10333;SDS011;5212;47.892;16.406;2023-05-29T09:20:14;5.53;;;3.57;;
10333;SDS011;5212;47.892;16.406;2023-05-29T09:22:42;4.53;;;3.50;;
10333;SDS011;5212;47.892;16.406;2023-05-29T09:25:08;4.80;;;3.37;;
10333;SDS011;5212;47.892;16.406;2023-05-29T09:27:37;4.50;;;3.43;;
10333;SDS011;5212;47.892;16.406;2023-05-29T09:30:04;5.70;;;3.80;;
10333;SDS011;5212;47.892;16.406;2023-05-29T09:32:31;5.57;;;3.80;;
10333;SDS011;5212;47.892;16.406;2023-05-29T09:34:59;5.63;;;3.60;;
10333;SDS011;5212;47.892;16.406;2023-05-29T09:37:25;4.57;;;3.73;;
10333;SDS011;5212;47.892;16.406;2023-05-29T09:39:52;6.17;;;3.80;;
10333;SDS011;5212;47.892;16.406;2023-05-29T09:42:18;4.60;;;3.77;;
10333;SDS011;5212;47.892;16.406;2023-05-29T09:44:46;4.33;;;3.60;;
10333;SDS011;5212;47.892;16.406;2023-05-29T09:47:14;4.40;;;3.50;;
10333;SDS011;5212;47.892;16.406;2023-05-29T09:49:42;4.87;;;3.33;;
10333;SDS011;5212;47.892;16.406;2023-05-29T09:52:09;4.10;;;3.30;;
10333;SDS011;5212;47.892;16.406;2023-05-29T09:54:39;6.10;;;3.80;;
10333;SDS011;5212;47.892;16.406;2023-05-29T09:57:06;4.77;;;3.57;;
10333;SDS011;5212;47.892;16.406;2023-05-29T09:59:34;5.77;;;3.70;;
10333;SDS011;5212;47.892;16.406;2023-05-29T10:02:01;3.40;;;3.10;;
10333;SDS011;5212;47.892;16.406;2023-05-29T10:04:29;5.20;;;3.40;;
10333;SDS011;5212;47.892;16.406;2023-05-29T10:06:57;3.63;;;3.33;;
10333;SDS011;5212;47.892;16.406;2023-05-29T10:09:26;4.33;;;3.30;;
10333;SDS011;5212;47.892;16.406;2023-05-29T10:11:53;6.40;;;3.50;;
10333;SDS011;5212;47.892;16.406;2023-05-29T10:14:23;5.17;;;3.27;;
10333;SDS011;5212;47.892;16.406;2023-05-29T10:16:50;4.70;;;3.77;;
10333;SDS011;5212;47.892;16.406;2023-05-29T10:19:19;4.23;;;3.00;;
10333;SDS011;5212;47.892;16.406;2023-05-29T10:21:49;3.73;;;2.97;;
10333;SDS011;5212;47.892;16.406;2023-05-29T10:24:15;6.50;;;3.37;;
10333;SDS011;5212;47.892;16.406;2023-05-29T10:26:42;6.00;;;3.50;;
10333;SDS011;5212;47.892;16.406;2023-05-29T10:29:10;5.40;;;3.23;;
10333;SDS011;5212;47.892;16.406;2023-05-29T10:31:43;4.10;;;3.00;;
10333;SDS011;5212;47.892;16.406;2023-05-29T10:34:18;6.00;;;3.13;;
10333;SDS011;5212;47.892;16.406;2023-05-29T10:36:49;6.50;;;3.50;;
10333;SDS011;5212;47.892;16.406;2023-05-29T10:39:20;4.27;;;3.10;;
10333;SDS011;5212;47.892;16.406;2023-05-29T10:41:46;4.27;;;3.40;;
10333;SDS011;5212;47.892;16.406;2023-05-29T10:47:08;4.87;;;3.33;;
10333;SDS011;5212;47.892;16.406;2023-05-29T10:49:37;3.77;;;3.13;;
10333;SDS011;5212;47.892;16.406;2023-05-29T10:52:04;5.50;;;3.60;;
10333;SDS011;5212;47.892;16.406;2023-05-29T10:54:39;5.60;;;3.60;;
10333;SDS011;5212;47.892;16.406;2023-05-29T10:57:06;6.23;;;3.60;;
10333;SDS011;5212;47.892;16.406;2023-05-29T10:59:36;5.03;;;3.60;;
10333;SDS011;5212;47.892;16.406;2023-05-29T11:02:02;4.00;;;3.13;;
10333;SDS011;5212;47.892;16.406;2023-05-29T11:04:29;4.53;;;3.50;;
10333;SDS011;5212;47.892;16.406;2023-05-29T11:07:00;3.93;;;3.40;;
10333;SDS011;5212;47.892;16.406;2023-05-29T11:09:29;3.77;;;3.10;;
10333;SDS011;5212;47.892;16.406;2023-05-29T11:12:10;4.37;;;3.60;;
10333;SDS011;5212;47.892;16.406;2023-05-29T11:14:44;4.80;;;3.50;;
10333;SDS011;5212;47.892;16.406;2023-05-29T11:19:55;5.17;;;3.60;;
10333;SDS011;5212;47.892;16.406;2023-05-29T11:22:23;3.80;;;3.40;;
10333;SDS011;5212;47.892;16.406;2023-05-29T11:24:53;5.63;;;3.73;;
10333;SDS011;5212;47.892;16.406;2023-05-29T11:27:19;4.50;;;3.37;;
10333;SDS011;5212;47.892;16.406;2023-05-29T11:29:45;4.73;;;3.43;;
10333;SDS011;5212;47.892;16.406;2023-05-29T11:32:14;4.57;;;3.47;;
10333;SDS011;5212;47.892;16.406;2023-05-29T11:34:42;4.70;;;3.47;;
10333;SDS011;5212;47.892;16.406;2023-05-29T11:37:11;3.70;;;3.30;;
10333;SDS011;5212;47.892;16.406;2023-05-29T11:39:37;3.60;;;3.20;;
10333;SDS011;5212;47.892;16.406;2023-05-29T11:42:04;4.00;;;3.60;;
10333;SDS011;5212;47.892;16.406;2023-05-29T11:44:31;5.50;;;3.40;;
10333;SDS011;5212;47.892;16.406;2023-05-29T11:47:00;4.30;;;3.53;;
10333;SDS011;5212;47.892;16.406;2023-05-29T11:49:28;4.27;;;3.27;;
10333;SDS011;5212;47.892;16.406;2023-05-29T11:51:54;5.93;;;4.03;;
10333;SDS011;5212;47.892;16.406;2023-05-29T11:54:20;4.20;;;3.80;;
10333;SDS011;5212;47.892;16.406;2023-05-29T11:56:47;4.53;;;3.50;;
10333;SDS011;5212;47.892;16.406;2023-05-29T11:59:13;4.73;;;3.50;;
10333;SDS011;5212;47.892;16.406;2023-05-29T12:01:40;4.67;;;3.13;;
10333;SDS011;5212;47.892;16.406;2023-05-29T12:04:15;4.63;;;3.50;;
10333;SDS011;5212;47.892;16.406;2023-05-29T12:06:41;3.93;;;3.40;;
10333;SDS011;5212;47.892;16.406;2023-05-29T12:09:07;4.07;;;3.43;;
10333;SDS011;5212;47.892;16.406;2023-05-29T12:11:34;5.10;;;3.53;;
10333;SDS011;5212;47.892;16.406;2023-05-29T12:14:01;4.00;;;3.60;;
10333;SDS011;5212;47.892;16.406;2023-05-29T12:16:27;4.77;;;3.30;;
10333;SDS011;5212;47.892;16.406;2023-05-29T12:18:53;4.47;;;3.50;;
10333;SDS011;5212;47.892;16.406;2023-05-29T12:21:20;3.77;;;3.30;;
10333;SDS011;5212;47.892;16.406;2023-05-29T12:23:47;4.43;;;3.50;;
10333;SDS011;5212;47.892;16.406;2023-05-29T12:26:13;4.73;;;3.20;;
10333;SDS011;5212;47.892;16.406;2023-05-29T12:28:42;4.60;;;3.57;;
10333;SDS011;5212;47.892;16.406;2023-05-29T12:31:09;4.93;;;3.50;;
10333;SDS011;5212;47.892;16.406;2023-05-29T12:33:36;5.27;;;3.67;;
10333;SDS011;5212;47.892;16.406;2023-05-29T12:36:06;4.83;;;3.60;;
10333;SDS011;5212;47.892;16.406;2023-05-29T12:38:41;4.40;;;3.67;;
10333;SDS011;5212;47.892;16.406;2023-05-29T12:41:21;4.43;;;3.80;;
10333;SDS011;5212;47.892;16.406;2023-05-29T12:43:48;5.53;;;3.43;;
10333;SDS011;5212;47.892;16.406;2023-05-29T12:46:14;4.53;;;3.67;;
10333;SDS011;5212;47.892;16.406;2023-05-29T12:48:40;4.37;;;3.57;;
10333;SDS011;5212;47.892;16.406;2023-05-29T12:51:06;4.77;;;3.97;;
10333;SDS011;5212;47.892;16.406;2023-05-29T12:53:33;4.53;;;3.80;;
10333;SDS011;5212;47.892;16.406;2023-05-29T12:55:59;4.40;;;3.27;;
10333;SDS011;5212;47.892;16.406;2023-05-29T12:58:26;6.67;;;3.97;;
10333;SDS011;5212;47.892;16.406;2023-05-29T13:00:52;6.47;;;3.97;;
10333;SDS011;5212;47.892;16.406;2023-05-29T13:03:21;6.27;;;3.80;;
10333;SDS011;5212;47.892;16.406;2023-05-29T13:05:48;4.37;;;3.70;;
10333;SDS011;5212;47.892;16.406;2023-05-29T13:08:14;4.37;;;3.70;;
10333;SDS011;5212;47.892;16.406;2023-05-29T13:10:40;4.50;;;3.73;;
10333;SDS011;5212;47.892;16.406;2023-05-29T13:13:06;4.57;;;3.70;;
10333;SDS011;5212;47.892;16.406;2023-05-29T13:15:32;4.70;;;3.90;;
10333;SDS011;5212;47.892;16.406;2023-05-29T13:17:58;4.73;;;3.40;;
10333;SDS011;5212;47.892;16.406;2023-05-29T13:20:25;5.60;;;3.93;;
10333;SDS011;5212;47.892;16.406;2023-05-29T13:22:51;5.47;;;3.80;;
10333;SDS011;5212;47.892;16.406;2023-05-29T13:25:19;3.90;;;3.33;;
10333;SDS011;5212;47.892;16.406;2023-05-29T13:27:46;4.53;;;3.27;;
10333;SDS011;5212;47.892;16.406;2023-05-29T13:30:13;4.83;;;3.37;;
10333;SDS011;5212;47.892;16.406;2023-05-29T13:32:40;4.20;;;3.50;;
10333;SDS011;5212;47.892;16.406;2023-05-29T13:35:06;4.30;;;3.63;;
10333;SDS011;5212;47.892;16.406;2023-05-29T13:37:34;4.63;;;3.50;;
10333;SDS011;5212;47.892;16.406;2023-05-29T13:40:01;3.80;;;3.40;;
10333;SDS011;5212;47.892;16.406;2023-05-29T13:42:27;6.87;;;3.70;;
10333;SDS011;5212;47.892;16.406;2023-05-29T13:44:53;5.57;;;3.90;;
10333;SDS011;5212;47.892;16.406;2023-05-29T13:47:19;5.73;;;4.00;;
10333;SDS011;5212;47.892;16.406;2023-05-29T13:49:45;5.20;;;3.50;;
10333;SDS011;5212;47.892;16.406;2023-05-29T13:52:11;5.60;;;3.43;;
10333;SDS011;5212;47.892;16.406;2023-05-29T13:54:38;6.77;;;3.53;;
10333;SDS011;5212;47.892;16.406;2023-05-29T13:57:05;4.33;;;3.67;;
10333;SDS011;5212;47.892;16.406;2023-05-29T13:59:32;4.00;;;3.53;;
10333;SDS011;5212;47.892;16.406;2023-05-29T14:01:58;9.50;;;4.47;;
10333;SDS011;5212;47.892;16.406;2023-05-29T14:04:24;5.57;;;4.10;;
10333;SDS011;5212;47.892;16.406;2023-05-29T14:06:51;5.60;;;4.07;;
10333;SDS011;5212;47.892;16.406;2023-05-29T14:09:17;4.57;;;3.53;;
10333;SDS011;5212;47.892;16.406;2023-05-29T14:11:48;5.57;;;4.30;;
10333;SDS011;5212;47.892;16.406;2023-05-29T14:14:14;5.10;;;3.97;;
10333;SDS011;5212;47.892;16.406;2023-05-29T14:16:41;4.70;;;3.77;;
10333;SDS011;5212;47.892;16.406;2023-05-29T14:19:07;4.27;;;3.60;;
10333;SDS011;5212;47.892;16.406;2023-05-29T14:21:33;5.00;;;3.77;;
10333;SDS011;5212;47.892;16.406;2023-05-29T14:23:59;4.93;;;4.10;;
10333;SDS011;5212;47.892;16.406;2023-05-29T14:26:25;6.63;;;3.50;;
10333;SDS011;5212;47.892;16.406;2023-05-29T14:28:51;4.67;;;3.50;;
10333;SDS011;5212;47.892;16.406;2023-05-29T14:31:17;5.17;;;3.37;;
10333;SDS011;5212;47.892;16.406;2023-05-29T14:33:44;5.47;;;3.70;;
10333;SDS011;5212;47.892;16.406;2023-05-29T14:36:09;6.90;;;3.50;;
10333;SDS011;5212;47.892;16.406;2023-05-29T14:38:35;5.63;;;3.60;;
10333;SDS011;5212;47.892;16.406;2023-05-29T14:41:01;5.23;;;3.53;;
10333;SDS011;5212;47.892;16.406;2023-05-29T14:43:27;4.60;;;3.47;;
10333;SDS011;5212;47.892;16.406;2023-05-29T14:45:54;4.67;;;3.37;;
10333;SDS011;5212;47.892;16.406;2023-05-29T14:48:20;4.23;;;3.53;;
10333;SDS011;5212;47.892;16.406;2023-05-29T14:50:46;6.87;;;3.90;;